Jackson, Mississippi
Current Conditions -  °F | °C
As of 4:53 AM on Friday 19 Dec 2014 (Local Time) from KHKS Reporting Station
Overcast Overcast  
Wind Chill:   Ceiling: 2500
Heat Index:   Visibility: 10mi
Dew Point:   Wind: 7mph
Humidity: 66%   Direction: 80°E
Pressure: 30.13"   Gusts: NA
Location:  32.3°N, 90.18°W
Report Text: KHKS 191053Z AUTO 08006KT 10SM OVC025 09/03 A3013 RMK AO2 SLP198 T00890028
Loading
Personal Weather Stations






























Interactive Weather Map New forecast layout! Learn more

10-Day Weather Forecast

Advertisements
Track Severe Weather on mobile